Time;durP1;ratioP1;P1;durP2;ratioP2;P2;SDS_P1;SDS_P2;PMS_P1;PMS_P2;Temp;Humidity;BMP_temperature;BMP_pressure;BME280_temperature;BME280_humidity;BME280_pressure;Samples;Min_cycle;Max_cycle;Signal;HPM_P1;HPM_P2
2022/04/20 00:01:55;;;;;;;3.37;2.20;;;6.80;99.90;;;;;;5114505;28;20075;-74
2022/04/20 00:04:23;;;;;;;3.43;1.97;;;6.90;99.90;;;;;;5114052;28;20047;-72
2022/04/20 00:06:50;;;;;;;4.47;2.30;;;6.90;99.90;;;;;;5106407;28;20105;-74
2022/04/20 00:09:17;;;;;;;3.67;2.00;;;7.00;99.90;;;;;;5103337;28;20052;-73
2022/04/20 00:11:45;;;;;;;3.03;2.07;;;6.90;99.90;;;;;;5114362;28;20039;-73
2022/04/20 00:14:12;;;;;;;4.00;2.17;;;7.00;99.90;;;;;;5114063;28;20055;-72
2022/04/20 00:16:39;;;;;;;3.37;2.70;;;7.00;99.90;;;;;;5097094;28;20097;-73
2022/04/20 00:19:06;;;;;;;2.77;2.57;;;7.00;99.90;;;;;;5095963;28;20044;-73
2022/04/20 00:21:34;;;;;;;2.10;1.90;;;7.00;99.90;;;;;;5096697;28;20043;-74
2022/04/20 00:24:00;;;;;;;4.70;2.63;;;7.10;99.90;;;;;;5095104;28;20390;-73
2022/04/20 00:26:27;;;;;;;2.50;2.30;;;7.00;99.90;;;;;;5096655;28;20051;-73
2022/04/20 00:28:53;;;;;;;3.37;2.90;;;7.00;99.90;;;;;;5095550;28;20048;-73
2022/04/20 00:31:20;;;;;;;3.43;2.57;;;7.00;99.90;;;;;;5095645;28;20117;-73
2022/04/20 00:33:47;;;;;;;3.23;2.10;;;7.00;99.90;;;;;;5096401;28;20066;-73
2022/04/20 00:36:13;;;;;;;3.67;2.33;;;6.90;99.90;;;;;;5096055;28;20554;-73
2022/04/20 00:38:42;;;;;;;5.53;2.70;;;6.90;99.90;;;;;;5103965;28;20101;-72
2022/04/20 00:41:09;;;;;;;4.50;2.30;;;6.90;99.90;;;;;;5096118;28;20052;-73
2022/04/20 00:43:37;;;;;;;2.87;2.10;;;6.90;99.90;;;;;;5106873;28;20043;-73
2022/04/20 00:46:05;;;;;;;2.40;2.10;;;6.90;99.90;;;;;;5115187;28;20044;-73
2022/04/20 00:48:35;;;;;;;3.37;2.70;;;6.90;99.90;;;;;;5117023;28;20044;-74
2022/04/20 00:51:02;;;;;;;3.20;2.07;;;6.90;99.90;;;;;;5101019;28;20044;-72
2022/04/20 00:53:29;;;;;;;2.90;2.43;;;6.90;99.90;;;;;;5097656;28;20040;-73
2022/04/20 00:55:57;;;;;;;10.37;2.63;;;6.90;99.90;;;;;;5099930;28;20044;-73
2022/04/20 00:58:24;;;;;;;3.97;2.10;;;6.90;99.90;;;;;;5114263;28;20043;-73
2022/04/20 01:00:50;;;;;;;2.77;2.47;;;6.80;99.90;;;;;;5115786;28;20499;-73
2022/04/20 01:03:17;;;;;;;5.47;2.70;;;6.80;99.90;;;;;;5118961;28;20052;-73
2022/04/20 01:05:45;;;;;;;6.67;2.47;;;6.90;99.90;;;;;;5118204;28;20051;-74
2022/04/20 01:08:11;;;;;;;3.50;2.63;;;6.80;99.90;;;;;;5114847;28;20050;-73
2022/04/20 01:10:38;;;;;;;4.40;2.77;;;6.80;99.90;;;;;;5110053;28;20044;-72
2022/04/20 01:13:06;;;;;;;2.57;2.20;;;6.80;99.90;;;;;;5107854;28;20494;-73
2022/04/20 01:15:34;;;;;;;7.80;2.57;;;6.80;99.90;;;;;;5098194;28;20047;-72
2022/04/20 01:18:11;;;;;;;3.00;2.50;;;6.80;99.90;;;;;;5100186;28;20056;-73
2022/04/20 01:20:39;;;;;;;3.00;2.50;;;6.80;99.90;;;;;;5100530;28;20056;-72
2022/04/20 01:23:06;;;;;;;3.03;2.40;;;6.70;99.90;;;;;;5099983;28;20113;-73
2022/04/20 01:25:33;;;;;;;5.77;3.17;;;6.70;99.90;;;;;;5099722;28;20040;-74
2022/04/20 01:28:01;;;;;;;4.70;2.50;;;6.70;99.90;;;;;;5098606;28;20091;-73
2022/04/20 01:30:31;;;;;;;6.20;3.60;;;6.70;99.90;;;;;;5100467;28;20087;-72
2022/04/20 01:32:58;;;;;;;4.50;2.67;;;6.70;99.90;;;;;;5099174;28;20075;-72
2022/04/20 01:35:25;;;;;;;4.07;3.10;;;6.70;99.90;;;;;;5098373;28;20052;-74
2022/04/20 01:37:53;;;;;;;6.30;3.77;;;6.60;99.90;;;;;;5095072;28;20493;-73
2022/04/20 01:40:20;;;;;;;3.50;3.17;;;6.60;99.90;;;;;;5096369;28;20054;-74
2022/04/20 01:42:46;;;;;;;5.63;2.50;;;6.60;99.90;;;;;;5104950;28;20383;-73
2022/04/20 01:45:13;;;;;;;6.53;3.60;;;6.60;99.90;;;;;;5095726;28;20064;-73
2022/04/20 01:47:41;;;;;;;3.33;2.70;;;6.50;99.90;;;;;;5094747;28;20048;-73
2022/04/20 01:50:08;;;;;;;2.70;2.43;;;6.50;99.90;;;;;;5095043;28;20072;-73
2022/04/20 01:52:35;;;;;;;4.63;3.37;;;6.50;99.90;;;;;;5094484;28;20097;-73
2022/04/20 01:55:04;;;;;;;3.10;2.57;;;6.40;99.90;;;;;;5093564;28;20052;-73
2022/04/20 01:57:30;;;;;;;4.07;3.67;;;6.50;99.90;;;;;;5093410;28;20044;-72
2022/04/20 01:59:57;;;;;;;3.23;2.60;;;6.50;99.90;;;;;;5094736;28;20040;-72
2022/04/20 02:02:35;;;;;;;4.67;3.73;;;6.50;99.90;;;;;;5112663;28;20492;-73
2022/04/20 02:05:03;;;;;;;5.97;2.60;;;6.40;99.90;;;;;;5114057;28;20058;-74
2022/04/20 02:07:30;;;;;;;4.53;2.80;;;6.40;99.90;;;;;;5112938;28;20043;-73
2022/04/20 02:09:57;;;;;;;4.57;3.10;;;6.50;99.90;;;;;;5093941;28;20044;-73
2022/04/20 02:12:25;;;;;;;2.73;2.40;;;6.50;99.90;;;;;;5094696;28;20048;-74
2022/04/20 02:14:52;;;;;;;4.80;3.57;;;6.50;99.90;;;;;;5110954;28;20039;-73
2022/04/20 02:17:18;;;;;;;4.57;3.17;;;6.40;99.90;;;;;;5114033;28;20047;-73
2022/04/20 02:19:45;;;;;;;3.37;2.83;;;6.50;99.90;;;;;;5111264;28;20040;-74
2022/04/20 02:22:11;;;;;;;5.50;3.53;;;6.50;99.90;;;;;;5112314;28;20044;-73
2022/04/20 02:24:38;;;;;;;3.23;2.83;;;6.40;99.90;;;;;;5113840;28;20459;-73
2022/04/20 02:27:05;;;;;;;3.10;2.80;;;6.40;99.90;;;;;;5113822;28;20051;-73
2022/04/20 02:29:33;;;;;;;7.27;3.60;;;6.30;99.90;;;;;;5113619;28;20089;-72
2022/04/20 02:32:00;;;;;;;3.77;2.97;;;6.30;99.90;;;;;;5109756;28;20451;-72
2022/04/20 02:34:26;;;;;;;4.33;3.27;;;6.20;99.90;;;;;;5113411;28;20076;-73
2022/04/20 02:36:53;;;;;;;5.07;3.00;;;6.20;99.90;;;;;;5102363;28;20051;-73
2022/04/20 02:39:20;;;;;;;5.33;3.70;;;6.20;99.90;;;;;;5093430;28;20113;-73
2022/04/20 02:41:47;;;;;;;4.37;3.07;;;6.30;99.90;;;;;;5094334;28;20044;-73
2022/04/20 02:44:15;;;;;;;3.57;3.27;;;6.30;99.90;;;;;;5108931;28;20105;-73
2022/04/20 02:46:44;;;;;;;3.50;3.10;;;6.30;99.90;;;;;;5093844;28;20044;-72
2022/04/20 02:49:11;;;;;;;4.43;3.27;;;6.40;99.90;;;;;;5093255;28;20054;-72
2022/04/20 02:51:37;;;;;;;4.13;3.83;;;6.40;99.90;;;;;;5094183;28;20106;-73
2022/04/20 02:54:04;;;;;;;4.87;4.47;;;6.40;99.90;;;;;;5094346;28;20105;-73
2022/04/20 02:56:31;;;;;;;3.37;2.97;;;6.50;99.90;;;;;;5092711;28;20530;-72
2022/04/20 02:58:57;;;;;;;3.07;2.77;;;6.50;99.90;;;;;;5093050;28;20094;-73
2022/04/20 03:01:25;;;;;;;6.70;3.70;;;6.50;99.90;;;;;;5093025;28;20044;-73
2022/04/20 03:03:54;;;;;;;5.10;3.37;;;6.50;99.90;;;;;;5111329;28;20063;-73
2022/04/20 03:06:20;;;;;;;7.87;3.77;;;6.60;99.90;;;;;;5113299;28;20051;-73
2022/04/20 03:08:47;;;;;;;3.60;3.27;;;6.60;99.90;;;;;;5112947;28;20408;-74
2022/04/20 03:11:14;;;;;;;3.43;3.10;;;6.60;99.90;;;;;;5113377;28;20408;-72
2022/04/20 03:13:41;;;;;;;5.90;3.47;;;6.60;99.90;;;;;;5104100;28;20422;-74
2022/04/20 03:16:10;;;;;;;3.60;3.23;;;6.60;99.90;;;;;;5093699;28;20044;-72
2022/04/20 03:18:36;;;;;;;4.83;3.37;;;6.70;99.90;;;;;;5092985;28;20048;-73
2022/04/20 03:21:04;;;;;;;3.63;3.13;;;6.70;99.90;;;;;;5092990;28;20090;-72
2022/04/20 03:23:31;;;;;;;4.53;3.13;;;6.70;99.90;;;;;;5093969;28;20090;-72
2022/04/20 03:25:58;;;;;;;7.57;3.10;;;6.60;99.90;;;;;;5093767;28;20102;-72
2022/04/20 03:28:25;;;;;;;3.73;3.13;;;6.70;99.90;;;;;;5092677;28;20486;-72
2022/04/20 03:30:52;;;;;;;6.17;3.57;;;6.70;99.90;;;;;;5093227;28;20048;-73
2022/04/20 03:33:19;;;;;;;6.37;3.57;;;6.80;99.90;;;;;;5110673;28;20044;-73
2022/04/20 03:35:46;;;;;;;5.57;3.47;;;6.80;99.90;;;;;;5113480;28;20044;-73
2022/04/20 03:38:15;;;;;;;6.60;4.27;;;6.70;99.90;;;;;;5116930;28;20116;-73
2022/04/20 03:40:42;;;;;;;4.27;3.80;;;6.70;99.90;;;;;;5116604;28;20073;-73
2022/04/20 03:43:08;;;;;;;6.80;4.40;;;6.70;99.90;;;;;;5114654;28;20531;-72
2022/04/20 03:45:35;;;;;;;12.03;5.13;;;6.80;99.90;;;;;;5114457;28;20555;-72
2022/04/20 03:48:02;;;;;;;6.47;3.87;;;6.80;99.90;;;;;;5114960;28;20546;-73
2022/04/20 03:50:29;;;;;;;9.40;4.30;;;6.70;99.90;;;;;;5116682;28;20051;-73
2022/04/20 03:52:56;;;;;;;8.07;3.40;;;6.70;99.90;;;;;;5104401;28;20140;-72
2022/04/20 03:55:24;;;;;;;8.23;4.63;;;6.80;99.90;;;;;;5097088;28;20089;-73
2022/04/20 03:57:50;;;;;;;7.33;4.67;;;6.80;99.90;;;;;;5111308;28;20489;-74
2022/04/20 04:00:20;;;;;;;6.20;3.87;;;6.70;99.90;;;;;;5109530;28;20380;-72
2022/04/20 04:02:47;;;;;;;3.70;3.37;;;6.80;99.90;;;;;;5096221;28;20099;-73
2022/04/20 04:05:13;;;;;;;5.13;3.73;;;6.80;99.90;;;;;;5096187;28;20451;-73
2022/04/20 04:07:41;;;;;;;4.30;3.77;;;6.80;99.90;;;;;;5097275;28;20044;-73
2022/04/20 04:10:09;;;;;;;6.20;4.33;;;6.80;99.90;;;;;;5095870;28;20119;-73
2022/04/20 04:12:37;;;;;;;5.50;4.20;;;6.90;99.90;;;;;;5095723;28;20091;-73
2022/04/20 04:15:07;;;;;;;6.00;3.97;;;6.90;99.90;;;;;;5095724;28;20138;-73
2022/04/20 04:17:34;;;;;;;7.60;4.73;;;6.90;99.90;;;;;;5105470;28;20443;-73
2022/04/20 04:20:01;;;;;;;4.93;4.40;;;6.90;99.90;;;;;;5115726;28;20439;-72
2022/04/20 04:22:28;;;;;;;7.03;4.00;;;6.90;99.90;;;;;;5115687;28;20104;-73
2022/04/20 04:24:56;;;;;;;7.07;4.97;;;6.90;99.90;;;;;;5115255;28;20431;-72
2022/04/20 04:27:23;;;;;;;7.83;5.00;;;6.90;99.90;;;;;;5113926;28;20047;-73
2022/04/20 04:29:51;;;;;;;7.90;5.00;;;6.90;99.90;;;;;;5097295;28;20044;-73
2022/04/20 04:32:21;;;;;;;9.03;4.90;;;6.90;99.90;;;;;;5095293;28;20455;-72
2022/04/20 04:34:47;;;;;;;7.57;4.73;;;6.90;99.90;;;;;;5095154;28;20052;-73
2022/04/20 04:37:14;;;;;;;8.10;4.00;;;7.00;99.90;;;;;;5106961;28;20470;-73
2022/04/20 04:39:41;;;;;;;5.33;3.90;;;7.00;99.90;;;;;;5113095;28;20048;-73
2022/04/20 04:42:09;;;;;;;5.93;4.60;;;7.00;99.90;;;;;;5112889;28;20056;-73
2022/04/20 04:44:36;;;;;;;7.67;5.20;;;7.00;99.90;;;;;;5115149;28;20048;-72
2022/04/20 04:49:48;;;;;;;8.23;4.80;;;7.10;99.90;;;;;;5111625;28;20051;-73
2022/04/20 04:52:15;;;;;;;5.80;4.53;;;7.20;99.90;;;;;;5115311;28;20051;-72
2022/04/20 04:54:42;;;;;;;5.43;4.53;;;7.30;99.90;;;;;;5115293;28;20055;-73
2022/04/20 04:57:09;;;;;;;5.23;4.27;;;7.40;99.90;;;;;;5101287;28;20496;-72
2022/04/20 04:59:37;;;;;;;5.87;4.57;;;7.50;99.90;;;;;;5095801;28;20052;-75
2022/04/20 05:02:06;;;;;;;5.50;4.07;;;7.60;99.90;;;;;;5095465;28;20158;-73
2022/04/20 05:04:33;;;;;;;5.83;5.13;;;7.60;99.90;;;;;;5113319;28;20474;-73
2022/04/20 05:07:00;;;;;;;9.10;5.57;;;7.50;99.90;;;;;;5115112;28;20068;-73
2022/04/20 05:09:26;;;;;;;5.80;5.00;;;7.60;99.90;;;;;;5112457;28;20043;-73
2022/04/20 05:11:54;;;;;;;8.63;5.20;;;7.50;99.90;;;;;;5113085;28;20044;-73
2022/04/20 05:14:21;;;;;;;7.90;5.40;;;7.50;99.90;;;;;;5114934;28;20425;-72
2022/04/20 05:16:48;;;;;;;7.03;5.00;;;7.50;99.90;;;;;;5114905;28;20043;-73
2022/04/20 05:19:16;;;;;;;7.30;5.17;;;7.50;99.90;;;;;;5105602;28;20048;-73
2022/04/20 05:21:43;;;;;;;7.03;4.60;;;7.50;99.90;;;;;;5111359;28;20448;-73
2022/04/20 05:24:09;;;;;;;4.90;4.50;;;7.60;99.90;;;;;;5108931;28;20048;-72
2022/04/20 05:26:36;;;;;;;5.00;4.37;;;7.70;99.90;;;;;;5094207;28;20066;-73
2022/04/20 05:29:03;;;;;;;8.47;5.60;;;7.80;99.90;;;;;;5094246;28;20066;-74
2022/04/20 05:31:30;;;;;;;9.47;5.37;;;7.80;99.90;;;;;;5095230;28;20048;-73
2022/04/20 05:33:57;;;;;;;6.23;4.10;;;7.90;99.90;;;;;;5094858;28;20048;-72
2022/04/20 05:36:25;;;;;;;8.10;5.27;;;7.90;99.90;;;;;;5093877;28;20382;-73
2022/04/20 05:41:41;;;;;;;5.63;4.97;;;7.90;99.90;;;;;;5094808;28;20070;-72
2022/04/20 05:44:10;;;;;;;6.07;4.40;;;8.00;99.90;;;;;;5108879;28;20143;-73
2022/04/20 05:46:37;;;;;;;6.77;4.80;;;8.00;99.90;;;;;;5109863;28;20464;-73
2022/04/20 05:49:04;;;;;;;5.63;4.73;;;8.00;99.90;;;;;;5093974;28;20048;-72
2022/04/20 05:51:32;;;;;;;8.03;4.87;;;8.10;99.90;;;;;;5094949;28;20043;-72
2022/04/20 05:53:59;;;;;;;6.47;4.77;;;8.30;99.90;;;;;;5100190;28;20046;-72
2022/04/20 05:56:26;;;;;;;8.30;5.00;;;8.50;99.90;;;;;;5113940;28;20058;-73
2022/04/20 05:58:53;;;;;;;6.87;5.27;;;8.80;99.90;;;;;;5114168;28;20130;-73
2022/04/20 06:01:22;;;;;;;8.50;5.80;;;9.10;99.90;;;;;;5111681;28;20089;-74
2022/04/20 06:03:49;;;;;;;9.15;5.28;;;9.50;99.90;;;;;;5110601;28;20046;-73
2022/04/20 06:06:16;;;;;;;6.88;5.45;;;9.60;99.90;;;;;;5114239;28;20054;-73
2022/04/20 06:08:44;;;;;;;6.03;4.68;;;9.50;99.90;;;;;;5113500;28;20059;-73
2022/04/20 06:11:11;;;;;;;8.75;6.22;;;9.40;99.90;;;;;;5111898;28;20117;-74
2022/04/20 06:13:38;;;;;;;15.50;10.40;;;9.30;99.90;;;;;;5100125;28;20052;-72
2022/04/20 06:16:06;;;;;;;15.93;10.63;;;9.10;99.90;;;;;;5113965;28;20043;-75
2022/04/20 06:18:33;;;;;;;12.05;7.65;;;8.90;99.90;;;;;;5100095;28;20055;-77
2022/04/20 06:21:05;;;;;;;12.70;6.70;;;8.90;99.90;;;;;;5093584;28;20097;-74
2022/04/20 06:23:32;;;;;;;9.55;5.40;;;9.00;99.90;;;;;;5093384;28;20496;-74
2022/04/20 06:26:01;;;;;;;8.02;4.88;;;9.40;99.90;;;;;;5094419;28;20056;-74
2022/04/20 06:28:28;;;;;;;8.57;5.97;;;9.50;99.90;;;;;;5094050;28;20055;-74
2022/04/20 06:30:54;;;;;;;7.60;5.97;;;9.70;99.90;;;;;;5093721;28;20048;-75
2022/04/20 06:33:23;;;;;;;11.80;7.43;;;10.00;99.90;;;;;;5093559;28;20044;-74
2022/04/20 06:35:51;;;;;;;7.53;5.30;;;10.10;99.90;;;;;;5094417;28;20090;-74
2022/04/20 06:38:18;;;;;;;7.72;4.65;;;10.00;99.90;;;;;;5093823;28;20059;-75
2022/04/20 06:40:44;;;;;;;5.35;4.78;;;10.00;99.90;;;;;;5094354;28;20048;-73
2022/04/20 06:43:12;;;;;;;8.75;5.72;;;9.90;99.90;;;;;;5094249;28;20050;-76
2022/04/20 06:45:39;;;;;;;6.40;4.38;;;10.00;99.90;;;;;;5093332;28;20455;-75
2022/04/20 06:48:06;;;;;;;6.93;5.00;;;10.10;99.90;;;;;;5094199;28;20138;-73
2022/04/20 06:50:33;;;;;;;9.27;5.13;;;10.20;99.90;;;;;;5093330;28;20052;-74
2022/04/20 06:58:38;;;;;;;5.60;4.32;;;10.30;99.90;;;;;;5094073;28;20063;-74
2022/04/20 07:01:08;;;;;;;5.75;4.65;;;10.30;99.90;;;;;;5092853;28;20509;-74
2022/04/20 07:03:35;;;;;;;8.10;5.32;;;10.20;99.90;;;;;;5094146;28;20109;-74
2022/04/20 07:06:03;;;;;;;6.57;5.15;;;10.10;99.90;;;;;;5095412;28;20432;-75
2022/04/20 07:08:30;;;;;;;4.63;4.03;;;10.00;99.90;;;;;;5100603;28;20043;-74
2022/04/20 07:10:57;;;;;;;9.93;6.03;;;9.90;99.90;;;;;;5097553;28;20063;-75
2022/04/20 07:13:28;;;;;;;6.38;5.10;;;9.80;99.90;;;;;;5097502;28;20436;-75
2022/04/20 07:15:55;;;;;;;5.63;5.05;;;9.80;99.90;;;;;;5098447;28;20048;-75
2022/04/20 07:18:23;;;;;;;6.20;5.00;;;9.80;99.90;;;;;;5101916;28;20060;-73
2022/04/20 07:20:49;;;;;;;5.07;4.30;;;9.80;99.90;;;;;;5116326;28;20052;-74
2022/04/20 07:23:16;;;;;;;6.25;3.78;;;9.80;99.90;;;;;;5117107;28;20101;-73
2022/04/20 07:25:43;;;;;;;7.85;4.68;;;9.70;99.90;;;;;;5115629;28;20100;-73
2022/04/20 07:28:10;;;;;;;7.50;4.57;;;9.60;99.90;;;;;;5116510;28;20054;-73
2022/04/20 07:30:38;;;;;;;11.48;5.32;;;9.60;99.90;;;;;;5115812;28;20047;-74
2022/04/20 07:33:05;;;;;;;5.80;4.45;;;9.60;99.90;;;;;;5117069;28;20092;-74
2022/04/20 07:35:32;;;;;;;5.03;4.35;;;9.70;99.90;;;;;;5115458;28;20051;-74
2022/04/20 07:37:59;;;;;;;4.88;4.35;;;9.70;99.90;;;;;;5116793;28;20044;-72
2022/04/20 07:40:27;;;;;;;5.32;4.82;;;9.80;99.90;;;;;;5097902;28;20036;-73
2022/04/20 07:42:56;;;;;;;5.88;4.50;;;9.80;99.90;;;;;;5112373;28;20382;-76
2022/04/20 07:45:26;;;;;;;7.60;5.05;;;10.00;99.90;;;;;;5116194;28;20059;-72
2022/04/20 07:47:55;;;;;;;7.82;4.80;;;10.20;99.90;;;;;;5113285;28;20088;-73
2022/04/20 07:50:24;;;;;;;8.50;5.22;;;10.80;99.90;;;;;;5116107;28;20047;-73
2022/04/20 07:52:53;;;;;;;7.55;4.45;;;11.40;99.90;;;;;;5116361;28;20051;-73
2022/04/20 07:55:21;;;;;;;5.45;4.05;;;11.70;99.90;;;;;;5116272;28;20489;-74
2022/04/20 07:57:50;;;;;;;6.88;5.60;;;12.10;99.90;;;;;;5114880;28;20451;-73
2022/04/20 08:00:18;;;;;;;5.95;4.43;;;12.50;99.90;;;;;;5095758;28;20048;-73
2022/04/20 08:02:45;;;;;;;9.45;6.60;;;12.80;99.90;;;;;;5095739;28;20052;-73
2022/04/20 08:05:15;;;;;;;7.57;5.22;;;13.10;99.90;;;;;;5096170;28;20478;-73
2022/04/20 08:07:42;;;;;;;4.88;4.10;;;13.20;99.90;;;;;;5108637;28;20078;-75
2022/04/20 08:10:10;;;;;;;4.93;4.00;;;13.20;99.90;;;;;;5101250;28;20109;-75
2022/04/20 08:12:38;;;;;;;11.32;7.18;;;13.20;99.90;;;;;;5108437;28;20040;-75
2022/04/20 08:15:06;;;;;;;7.40;5.32;;;13.20;99.90;;;;;;5116207;28;20047;-75
2022/04/20 08:17:34;;;;;;;4.70;3.95;;;13.40;99.90;;;;;;5115323;28;20052;-73
2022/04/20 08:20:01;;;;;;;4.93;4.03;;;13.60;98.90;;;;;;5114089;28;20039;-75
2022/04/20 08:22:29;;;;;;;4.63;3.05;;;13.40;96.70;;;;;;5110286;28;20044;-75
2022/04/20 08:24:56;;;;;;;9.15;4.75;;;13.40;96.40;;;;;;5095682;28;20117;-73
2022/04/20 08:27:23;;;;;;;10.18;5.88;;;13.50;96.30;;;;;;5095318;28;20501;-73
2022/04/20 08:29:51;;;;;;;5.88;3.72;;;13.60;96.30;;;;;;5096294;28;20067;-73
2022/04/20 08:32:19;;;;;;;3.28;2.80;;;13.60;93.90;;;;;;5095075;28;20040;-73
2022/04/20 08:34:48;;;;;;;3.65;3.20;;;13.40;93.40;;;;;;5100466;28;20075;-74
2022/04/20 08:37:15;;;;;;;6.18;3.00;;;12.90;93.50;;;;;;5095289;28;20128;-74
2022/04/20 08:39:44;;;;;;;4.47;3.13;;;12.60;93.70;;;;;;5095255;28;20062;-73
2022/04/20 08:42:12;;;;;;;4.28;2.97;;;12.40;94.20;;;;;;5097289;28;20044;-73
2022/04/20 08:44:43;;;;;;;2.47;2.28;;;12.10;94.90;;;;;;5096100;28;20048;-73
2022/04/20 08:47:16;;;;;;;4.05;2.80;;;12.10;95.60;;;;;;5103190;28;20092;-72
2022/04/20 08:49:43;;;;;;;4.90;3.60;;;11.90;96.40;;;;;;5115006;28;20495;-72
2022/04/20 08:54:57;;;;;;;6.53;3.65;;;11.60;98.50;;;;;;5112783;28;20121;-74
2022/04/20 08:57:25;;;;;;;4.10;2.97;;;11.50;99.90;;;;;;5114775;28;20097;-73
2022/04/20 08:59:54;;;;;;;4.15;2.80;;;11.40;99.90;;;;;;5114591;28;20122;-74
2022/04/20 09:02:24;;;;;;;3.50;3.20;;;11.30;99.90;;;;;;5110581;28;20039;-79
2022/04/20 09:04:51;;;;;;;4.07;3.10;;;11.40;99.90;;;;;;5077352;28;20131;-74
2022/04/20 09:07:20;;;;;;;4.15;3.33;;;11.40;99.90;;;;;;5094630;28;20078;-78
2022/04/20 09:09:47;;;;;;;4.82;3.70;;;11.50;99.90;;;;;;5104910;28;20410;-77
2022/04/20 09:12:20;;;;;;;4.75;3.30;;;11.70;99.90;;;;;;5114959;28;20059;-77
2022/04/20 09:14:50;;;;;;;3.90;3.20;;;11.70;99.90;;;;;;5096452;28;20044;-74
2022/04/20 09:17:18;;;;;;;6.47;3.80;;;11.80;99.90;;;;;;5094236;28;20082;-73
2022/04/20 09:19:45;;;;;;;5.80;3.80;;;11.80;99.90;;;;;;5093971;28;20540;-73
2022/04/20 09:22:23;;;;;;;6.60;4.22;;;11.60;99.90;;;;;;5094040;28;20504;-76
2022/04/20 09:25:04;;;;;;;4.18;3.50;;;11.50;99.90;;;;;;5094055;28;20052;-73
2022/04/20 09:27:33;;;;;;;5.07;4.53;;;11.60;99.90;;;;;;5113513;28;20051;-73
2022/04/20 09:30:00;;;;;;;5.70;3.28;;;11.70;99.90;;;;;;5113542;28;20047;-77
2022/04/20 09:32:31;;;;;;;8.77;4.10;;;11.70;99.90;;;;;;5094217;28;20047;-78
2022/04/20 09:34:58;;;;;;;10.45;4.38;;;11.70;99.90;;;;;;5103790;28;20411;-73
2022/04/20 09:37:25;;;;;;;5.50;4.05;;;11.90;99.90;;;;;;5112493;28;20075;-74
2022/04/20 09:39:52;;;;;;;5.55;4.10;;;12.00;99.90;;;;;;5114148;28;20047;-72
2022/04/20 09:42:20;;;;;;;8.32;4.93;;;12.10;99.90;;;;;;5101210;28;20409;-73
2022/04/20 09:44:56;;;;;;;8.48;6.53;;;12.10;99.90;;;;;;5094084;28;20097;-73
2022/04/20 09:50:09;;;;;;;7.50;4.97;;;12.10;99.90;;;;;;5093766;28;20051;-73
2022/04/20 09:52:37;;;;;;;7.75;5.13;;;12.00;99.90;;;;;;5093597;28;20436;-73
2022/04/20 09:55:06;;;;;;;10.93;6.55;;;11.90;99.90;;;;;;5093876;28;20135;-73
2022/04/20 09:57:34;;;;;;;12.60;8.05;;;11.80;99.90;;;;;;5093850;28;20044;-73
2022/04/20 10:00:06;;;;;;;7.97;4.45;;;11.80;99.90;;;;;;5093416;28;20484;-73
2022/04/20 10:02:37;;;;;;;8.60;5.35;;;11.80;99.90;;;;;;5093530;28;20568;-73
2022/04/20 10:05:05;;;;;;;11.55;5.60;;;11.80;99.90;;;;;;5093748;28;20052;-72
2022/04/20 10:07:31;;;;;;;5.07;3.88;;;11.90;99.90;;;;;;5093722;28;20169;-73
2022/04/20 10:09:58;;;;;;;9.75;5.38;;;12.00;99.90;;;;;;5093642;28;20108;-73
2022/04/20 10:12:25;;;;;;;7.07;4.97;;;12.10;99.90;;;;;;5093561;28;20104;-73
2022/04/20 10:17:47;;;;;;;6.07;4.43;;;12.30;99.90;;;;;;5093274;28;20378;-73
2022/04/20 10:20:14;;;;;;;10.35;5.45;;;12.50;99.90;;;;;;5093281;28;20052;-73
2022/04/20 10:22:42;;;;;;;7.13;5.25;;;12.70;99.90;;;;;;5093364;28;20422;-73
2022/04/20 10:25:10;;;;;;;11.07;7.90;;;12.80;99.90;;;;;;5093582;28;20405;-72
2022/04/20 10:27:48;;;;;;;9.55;5.72;;;12.70;99.90;;;;;;5093551;28;20401;-72
2022/04/20 10:30:19;;;;;;;9.32;4.78;;;12.60;99.90;;;;;;5093431;28;20113;-73
2022/04/20 10:32:52;;;;;;;9.35;6.18;;;12.60;99.90;;;;;;5093454;28;20056;-74
2022/04/20 10:35:19;;;;;;;5.53;3.83;;;12.40;99.90;;;;;;5093388;28;20398;-73
2022/04/20 10:38:09;;;;;;;4.03;3.33;;;12.10;99.90;;;;;;5092999;28;20485;-73
2022/04/20 10:40:59;;;;;;;5.28;3.17;;;11.50;99.90;;;;;;5095064;28;20052;-73
2022/04/20 10:43:27;;;;;;;4.32;3.53;;;10.80;99.90;;;;;;5097528;28;20075;-73
2022/04/20 10:46:06;;;;;;;3.90;3.45;;;10.60;99.90;;;;;;5097042;28;20069;-73
2022/04/20 10:48:52;;;;;;;4.70;3.58;;;10.20;99.90;;;;;;5097431;28;20431;-72
2022/04/20 10:51:22;;;;;;;7.53;3.85;;;10.30;99.90;;;;;;5097359;28;20048;-72
2022/04/20 10:53:50;;;;;;;5.25;4.18;;;10.50;99.90;;;;;;5097460;28;20054;-74
2022/04/20 10:56:18;;;;;;;6.80;4.30;;;10.70;99.90;;;;;;5097260;28;20048;-72
2022/04/20 10:58:52;;;;;;;6.05;3.92;;;10.80;99.90;;;;;;5097175;28;20044;-74
2022/04/20 11:01:19;;;;;;;4.80;4.03;;;11.00;99.90;;;;;;5097098;28;20052;-73
2022/04/20 11:04:05;;;;;;;4.60;3.30;;;11.00;99.90;;;;;;5097132;28;20071;-73
2022/04/20 11:07:06;;;;;;;3.60;3.30;;;11.10;99.90;;;;;;5096199;28;20052;-73
2022/04/20 11:10:10;;;;;;;4.97;3.88;;;11.00;99.90;;;;;;5091833;28;20140;-73
2022/04/20 11:18:45;;;;;;;6.13;4.57;;;11.60;99.90;;;;;;5096541;28;20100;-73
2022/04/20 11:21:19;;;;;;;5.05;3.70;;;11.60;99.90;;;;;;5096826;28;20054;-73
2022/04/20 11:23:50;;;;;;;12.85;8.30;;;11.60;99.90;;;;;;5096295;28;20162;-72
2022/04/20 11:26:19;;;;;;;5.30;4.63;;;11.60;99.90;;;;;;5096831;28;20125;-72
2022/04/20 11:28:47;;;;;;;5.70;4.13;;;11.60;99.90;;;;;;5096657;28;20131;-72
2022/04/20 11:31:13;;;;;;;5.97;3.83;;;11.50;99.90;;;;;;5096518;28;20052;-73
2022/04/20 11:33:40;;;;;;;4.68;3.90;;;11.70;99.90;;;;;;5096245;28;20496;-73
2022/04/20 11:36:07;;;;;;;3.88;3.47;;;11.70;99.90;;;;;;5096244;28;20469;-74
2022/04/20 11:38:41;;;;;;;5.20;3.72;;;11.90;99.90;;;;;;5096353;28;20055;-73
2022/04/20 11:41:09;;;;;;;7.93;4.10;;;12.00;99.90;;;;;;5096375;28;20101;-72
2022/04/20 11:43:36;;;;;;;3.53;2.90;;;12.20;99.90;;;;;;5096316;28;20048;-73
2022/04/20 11:46:03;;;;;;;6.45;3.13;;;12.40;99.90;;;;;;5095966;28;20478;-73
2022/04/20 11:48:30;;;;;;;4.50;3.47;;;12.60;99.90;;;;;;5096325;28;20040;-73
2022/04/20 11:50:57;;;;;;;5.10;3.65;;;12.60;99.90;;;;;;5096065;28;20134;-73
2022/04/20 11:53:32;;;;;;;3.40;3.10;;;13.00;99.90;;;;;;5094924;28;20052;-72
2022/04/20 11:56:00;;;;;;;8.98;3.53;;;13.40;99.90;;;;;;5095918;28;20047;-73
2022/04/20 11:58:26;;;;;;;4.13;2.95;;;14.00;99.90;;;;;;5095952;28;20097;-73
2022/04/20 12:01:01;;;;;;;3.75;3.38;;;14.40;99.90;;;;;;5095786;28;20048;-73
2022/04/20 12:03:31;;;;;;;4.55;3.30;;;14.90;99.90;;;;;;5096061;28;20105;-72
2022/04/20 12:06:05;;;;;;;3.65;2.78;;;15.20;99.90;;;;;;5095776;28;20066;-72
2022/04/20 12:08:35;;;;;;;3.15;2.85;;;15.20;99.90;;;;;;5095538;28;20056;-73
2022/04/20 12:11:06;;;;;;;5.60;4.18;;;15.20;99.90;;;;;;5095730;28;20043;-73
2022/04/20 12:13:33;;;;;;;4.05;3.28;;;15.30;99.90;;;;;;5095744;28;20127;-73
2022/04/20 12:16:05;;;;;;;3.65;2.92;;;15.40;99.90;;;;;;5095772;28;20102;-72
2022/04/20 12:18:35;;;;;;;3.28;2.88;;;15.20;99.90;;;;;;5095527;28;20048;-73
2022/04/20 12:21:03;;;;;;;2.80;2.60;;;15.10;99.90;;;;;;5095218;28;20048;-73
2022/04/20 12:23:36;;;;;;;2.63;2.42;;;14.90;99.90;;;;;;5095470;28;20108;-72
2022/04/20 12:26:07;;;;;;;4.63;2.90;;;15.00;99.90;;;;;;5095365;28;20149;-72
2022/04/20 12:28:45;;;;;;;4.75;2.80;;;14.90;99.90;;;;;;5095306;28;20051;-73
2022/04/20 12:31:13;;;;;;;4.10;2.58;;;14.80;99.90;;;;;;5095308;28;20068;-73
2022/04/20 12:33:41;;;;;;;3.08;2.25;;;14.80;99.90;;;;;;5095328;28;20048;-72
2022/04/20 12:36:09;;;;;;;4.47;2.55;;;14.90;99.90;;;;;;5095167;28;20055;-72
2022/04/20 12:38:44;;;;;;;3.10;2.80;;;14.80;99.90;;;;;;5094977;28;20063;-72
2022/04/20 12:41:36;;;;;;;4.28;2.60;;;14.80;99.90;;;;;;5094956;28;20051;-72
2022/04/20 12:44:24;;;;;;;5.32;3.45;;;14.70;99.90;;;;;;5095090;28;20048;-73
2022/04/20 12:46:50;;;;;;;5.10;3.88;;;14.50;99.90;;;;;;5094477;28;20097;-72
2022/04/20 12:49:23;;;;;;;5.40;3.53;;;14.70;99.90;;;;;;5094902;28;20048;-72
2022/04/20 12:51:49;;;;;;;3.13;2.55;;;14.70;99.90;;;;;;5095315;28;20136;-73
2022/04/20 12:54:23;;;;;;;7.57;2.65;;;14.80;99.90;;;;;;5095219;28;20117;-73
2022/04/20 13:02:19;;;;;;;3.80;2.92;;;14.60;99.90;;;;;;5094489;28;20177;-74
2022/04/20 13:04:50;;;;;;;3.58;3.28;;;14.60;99.90;;;;;;5094221;28;20485;-73
2022/04/20 13:07:17;;;;;;;4.80;2.95;;;14.50;99.90;;;;;;5094750;28;20135;-73
2022/04/20 13:09:44;;;;;;;4.15;2.78;;;14.50;99.90;;;;;;5076202;28;20109;-73
2022/04/20 13:12:12;;;;;;;3.13;2.90;;;14.50;99.90;;;;;;5094823;28;20097;-73
2022/04/20 13:14:39;;;;;;;4.90;2.97;;;14.30;99.90;;;;;;5095059;28;20052;-73
2022/04/20 13:17:09;;;;;;;6.03;3.13;;;14.30;99.90;;;;;;5094757;28;20058;-73
2022/04/20 13:19:36;;;;;;;3.47;2.88;;;14.20;99.90;;;;;;5094325;28;20489;-74
2022/04/20 13:22:04;;;;;;;6.32;3.92;;;14.00;99.90;;;;;;5094427;28;20489;-73
2022/04/20 13:30:00;;;;;;;6.35;4.15;;;14.20;99.90;;;;;;5094481;28;20086;-74
2022/04/20 13:32:27;;;;;;;8.00;4.78;;;14.30;99.90;;;;;;5093711;28;20047;-73
2022/04/20 13:34:54;;;;;;;5.15;3.75;;;14.30;99.90;;;;;;5094005;28;20048;-73
2022/04/20 13:37:21;;;;;;;4.68;3.13;;;14.50;99.90;;;;;;5094298;28;20058;-73